Latest Weather Observations for Frederick Reef

IDQ60801

Issued at 3:42 pm EST Saturday 4 July 2020 (issued every 10 minutes, with the page automatically refreshed every 10 minutes)

About weather observations | Map of weather stations | Latest weather observations for QLD | Other Formats
Station Details ID: 200701 Name: FREDERICK REEF Lat: -20.94 Lon: 154.40 Height: 4.9 m
Data from the previous 72 hours. | See also: Recent months at Frederick Reef
Date/Time
EST
Temp
°C
App
Temp
°C
Dew
Point
°C
Rel
Hum
%
Delta-T
°C
Wind Press
QNH
hPa
Press
MSL
hPa
Rain since
9am
mm
Dir  Spd
km/h
Gust
km/h
Spd
kts
Gust
kts
04/03:30pm 22.7 - - - - S 32 35 17 19 1016.9 1016.9 -
04/03:00pm 22.8 - - - - S 32 35 17 19 1016.8 1016.8 -
04/02:30pm 22.7 - - - - S 30 33 16 18 1016.9 1016.9 -
04/02:00pm 22.5 - - - - SSW 28 33 15 18 1016.9 1016.9 -
04/01:30pm 22.1 - - - - SSE 22 28 12 15 1017.3 1017.3 -
04/01:00pm 21.6 - - - - S 13 15 7 8 1017.8 1017.8 -
04/12:41pm 21.1 - - - - SSW 28 46 15 25 1018.1 1018.1 -
04/12:30pm 22.2 - - - - SSW 28 39 15 21 1017.8 1017.8 -
04/12:00pm 22.2 - - - - SSW 24 32 13 17 1018.2 1018.2 -
04/11:30am 22.3 - - - - S 17 19 9 10 1018.6 1018.6 -
04/11:00am 22.4 - - - - S 15 19 8 10 1019.1 1019.1 -
04/10:30am 22.4 - - - - S 17 19 9 10 1019.5 1019.5 -
04/10:00am 22.3 - - - - S 15 19 8 10 1019.7 1019.7 -
04/09:30am 22.4 - - - - SSW 13 17 7 9 1019.7 1019.7 -
04/09:00am 22.3 - - - - S 13 17 7 9 1019.9 1019.9 -
04/08:30am 22.2 - - - - S 13 15 7 8 1019.6 1019.6 -
04/08:00am 22.3 - - - - S 11 15 6 8 1019.6 1019.6 -
04/07:30am 22.4 - - - - SSE 11 13 6 7 1019.4 1019.4 -
04/07:00am 22.1 - - - - SW 13 15 7 8 1019.2 1019.2 -
04/06:30am 22.0 - - - - S 11 13 6 7 1019.1 1019.1 -
04/06:00am 22.0 - - - - S 9 13 5 7 1019.0 1019.0 -
04/05:30am 22.0 - - - - WSW 9 13 5 7 1018.6 1018.6 -
04/05:00am 22.0 - - - - WSW 9 13 5 7 1018.3 1018.3 -
04/04:30am 22.0 - - - - SW 11 15 6 8 1018.3 1018.3 -
04/04:00am 22.1 - - - - SSW 15 17 8 9 1018.1 1018.1 -
04/03:30am 22.1 - - - - SW 13 15 7 8 1018.5 1018.5 -
04/03:00am 22.1 - - - - WSW 9 13 5 7 1018.7 1018.7 -
04/02:30am 22.0 - - - - WSW 7 11 4 6 1019.0 1019.0 -
04/02:00am 21.7 - - - - CALM 0 0 0 0 1019.3 1019.3 -
04/01:30am 21.3 - - - - W 7 15 4 8 1019.7 1019.7 -
04/01:00am 22.3 - - - - WSW 7 13 4 7 1020.3 1020.2 -
04/12:30am 22.3 - - - - WSW 7 11 4 6 1020.5 1020.4 -
04/12:00am 22.3 - - - - SW 11 15 6 8 1020.6 1020.5 -
 
Date/Time
EST
Temp
°C
App
Temp
°C
Dew
Point
°C
Rel
Hum
%
Delta-T
°C
Wind Press
QNH
hPa
Press
MSL
hPa
Rain since
9am
mm
Dir  Spd
km/h
Gust
km/h
Spd
kts
Gust
kts
03/11:30pm 22.3 - - - - SSW 15 19 8 10 1020.6 1020.5 -
03/11:00pm 22.3 - - - - S 17 19 9 10 1020.6 1020.5 -
03/10:30pm 22.3 - - - - SSE 17 19 9 10 1020.9 1020.8 -
03/10:00pm 22.3 - - - - S 19 20 10 11 1021.1 1021.0 -
03/09:30pm 22.4 - - - - SSE 19 22 10 12 1021.1 1021.0 -
03/09:00pm 22.3 - - - - SW 13 15 7 8 1021.1 1021.0 -
03/08:30pm 22.2 - - - - SE 17 19 9 10 1021.1 1021.0 -
03/08:00pm 22.2 - - - - SE 19 20 10 11 1020.9 1020.8 -
03/07:30pm 22.0 - - - - ESE 20 24 11 13 1020.7 1020.6 -
03/07:00pm 21.9 - - - - ESE 20 24 11 13 1020.5 1020.4 -
03/06:30pm 21.9 - - - - E 24 30 13 16 1020.2 1020.1 -
03/06:00pm 21.9 - - - - E 26 28 14 15 1019.8 1019.8 -
03/05:30pm 21.9 - - - - ESE 26 30 14 16 1019.6 1019.6 -
03/05:00pm 21.8 - - - - ESE 26 33 14 18 1019.5 1019.5 -
03/04:30pm 22.0 - - - - E 24 30 13 16 1019.1 1019.1 -
03/04:00pm 22.0 - - - - ESE 26 30 14 16 1019.0 1019.0 -
03/03:30pm 21.8 - - - - ESE 24 28 13 15 1018.9 1018.9 -
03/03:00pm 22.0 - - - - E 28 32 15 17 1018.9 1018.9 -
03/02:30pm 22.2 - - - - ESE 30 33 16 18 1019.0 1019.0 -
03/02:00pm 22.2 - - - - E 30 33 16 18 1019.1 1019.1 -
03/01:30pm 22.0 - - - - E 30 33 16 18 1019.4 1019.4 -
03/01:00pm 21.9 - - - - E 32 37 17 20 1019.6 1019.6 -
03/12:30pm 22.1 - - - - E 35 37 19 20 1019.8 1019.8 -
03/12:00pm 22.0 - - - - E 37 41 20 22 1020.2 1020.1 -
03/11:30am 22.1 - - - - ESE 39 46 21 25 1020.4 1020.3 -
03/11:00am 22.1 - - - - ESE 43 48 23 26 1020.6 1020.5 -
03/10:30am 22.2 - - - - ESE 43 46 23 25 1021.1 1021.0 -
03/10:00am 22.2 - - - - ESE 41 46 22 25 1021.2 1021.1 -
03/09:30am 22.5 - - - - ESE 39 43 21 23 1021.4 1021.3 -
03/09:00am 22.4 - - - - ESE 41 46 22 25 1021.4 1021.3 -
03/08:30am 22.3 - - - - ESE 43 46 23 25 1021.3 1021.2 -
03/08:00am 22.6 - - - - ESE 41 48 22 26 1020.9 1020.8 -
03/07:30am 22.4 - - - - ESE 41 46 22 25 1020.7 1020.6 -
03/07:00am 22.6 - - - - ESE 43 46 23 25 1020.3 1020.2 -
03/06:30am 22.4 - - - - ESE 41 44 22 24 1020.2 1020.1 -
03/06:00am 22.4 - - - - ESE 39 44 21 24 1019.9 1019.9 -
03/05:30am 22.4 - - - - ESE 39 44 21 24 1019.6 1019.6 -
03/05:00am 22.4 - - - - ESE 39 46 21 25 1019.5 1019.5 -
03/04:30am 22.4 - - - - E 43 50 23 27 1019.2 1019.2 -
03/04:00am 22.3 - - - - ESE 43 50 23 27 1019.2 1019.2 -
03/03:30am 21.7 - - - - E 41 48 22 26 1019.3 1019.3 -
03/03:24am 22.0 - - - - ESE 43 46 23 25 1019.3 1019.3 -
03/03:00am 21.9 - - - - ESE 43 46 23 25 1019.4 1019.4 -
03/02:30am 22.2 - - - - ESE 44 52 24 28 1019.4 1019.4 -
03/02:00am 21.8 - - - - ESE 39 50 21 27 1019.6 1019.6 -
03/01:36am 20.9 - - - - SE 37 52 20 28 1019.8 1019.8 -
03/01:30am 21.2 - - - - SE 39 48 21 26 1020.1 1020.0 -
03/01:00am 20.1 - - - - SE 37 50 20 27 1020.3 1020.2 -
03/12:30am 21.8 - - - - SE 35 41 19 22 1020.5 1020.4 -
03/12:00am 21.7 - - - - ESE 39 43 21 23 1020.6 1020.5 -
 
Date/Time
EST
Temp
°C
App
Temp
°C
Dew
Point
°C
Rel
Hum
%
Delta-T
°C
Wind Press
QNH
hPa
Press
MSL
hPa
Rain since
9am
mm
Dir  Spd
km/h
Gust
km/h
Spd
kts
Gust
kts
02/11:30pm 22.0 - - - - ESE 41 46 22 25 1020.8 1020.7 -
02/11:00pm 21.9 - - - - ESE 39 43 21 23 1020.9 1020.8 -
02/10:30pm 21.6 - - - - ESE 43 50 23 27 1021.1 1021.0 -
02/10:00pm 21.7 - - - - ESE 39 44 21 24 1021.1 1021.0 -
02/09:30pm 20.8 - - - - E 48 56 26 30 1021.1 1021.0 -
02/09:24pm 20.5 - - - - E 52 56 28 30 1020.7 - -
02/09:00pm 21.7 - - - - ESE 39 46 21 25 1020.9 1020.8 -
02/08:30pm 21.4 - - - - ESE 37 43 20 23 1020.8 1020.7 -
02/08:00pm 21.0 - - - - SE 35 39 19 21 1020.9 1020.8 -
02/07:30pm 20.8 - - - - SE 43 48 23 26 1020.7 1020.6 -
02/07:00pm 20.5 - - - - SE 39 48 21 26 1020.4 1020.3 -
02/06:30pm 20.2 - - - - ESE 50 54 27 29 1019.8 1019.8 -
02/06:00pm 21.6 - - - - ESE 39 44 21 24 1019.7 1019.7 -
02/05:30pm 21.5 - - - - ESE 32 43 17 23 1019.5 1019.5 -
02/05:00pm 20.3 - - - - SE 20 26 11 14 1019.5 1019.5 -
02/04:30pm 18.7 - - - - SSE 24 30 13 16 1019.6 1019.6 -
02/04:00pm 19.0 - - - - ESE 22 26 12 14 1019.3 1019.3 -
02/03:30pm 19.3 - - - - E 39 43 21 23 1018.9 1018.9 -
02/03:23pm 20.0 - - - - E 37 41 20 22 1018.8 1018.8 -
02/03:15pm 20.4 - - - - E 35 37 19 20 1018.7 - -
02/03:00pm 20.7 - - - - SE 35 41 19 22 1018.6 1018.6 -
02/02:30pm 21.1 - - - - SE 35 39 19 21 1018.5 1018.5 -
02/02:00pm 21.3 - - - - ESE 35 39 19 21 1018.4 1018.4 -
02/01:30pm 21.5 - - - - ESE 32 37 17 20 1018.7 1018.7 -
02/01:00pm 21.9 - - - - ESE 33 39 18 21 1019.1 1019.1 -
02/12:30pm 21.6 - - - - ESE 30 35 16 19 1019.5 1019.5 -
02/12:00pm 21.2 - - - - SE 39 43 21 23 1019.7 1019.7 -
02/11:30am 21.6 - - - - ESE 32 41 17 22 1020.1 1020.0 -
02/11:00am 21.4 - - - - SE 26 30 14 16 1020.5 1020.4 -
02/10:30am 21.6 - - - - ESE 35 43 19 23 1020.6 1020.5 -
02/10:00am 22.0 - - - - ESE 32 35 17 19 1020.8 1020.7 -
02/09:30am 22.0 - - - - ESE 32 35 17 19 1020.9 1020.8 -
02/09:00am 22.1 - - - - ESE 28 32 15 17 1021.0 1020.9 -
02/08:30am 21.9 - - - - ESE 28 35 15 19 1021.1 1021.0 -
02/08:00am 21.8 - - - - ESE 30 35 16 19 1021.0 1020.9 -
02/07:30am 21.8 - - - - ESE 30 33 16 18 1020.7 1020.6 -
02/07:00am 21.7 - - - - ESE 32 37 17 20 1020.3 1020.2 -
02/06:30am 21.8 - - - - ESE 30 33 16 18 1020.1 1020.0 -
02/06:00am 21.8 - - - - ESE 30 33 16 18 1019.8 1019.8 -
02/05:30am 21.7 - - - - ESE 30 33 16 18 1019.7 1019.7 -
02/05:00am 21.6 - - - - ESE 32 35 17 19 1019.4 1019.4 -
02/04:30am 21.5 - - - - ESE 35 39 19 21 1019.0 1019.0 -
02/04:00am 21.8 - - - - ESE 32 37 17 20 1018.9 1018.9 -
02/03:30am 22.0 - - - - ESE 32 39 17 21 1018.9 1018.9 -
02/03:22am 21.9 - - - - ESE 32 37 17 20 1018.9 - -
02/03:03am 21.5 - - - - SE 37 41 20 22 1018.9 - -
02/03:00am 22.2 - - - - ESE 32 35 17 19 1019.0 1019.0 -
02/02:30am 21.9 - - - - ESE 28 35 15 19 1019.0 1019.0 -
02/02:00am 21.8 - - - - ESE 32 39 17 21 1019.2 1019.2 -
02/01:30am 21.8 - - - - ESE 35 41 19 22 1019.2 1019.2 -
02/12:30am 22.1 - - - - ESE 33 41 18 22 1020.1 1020.0 -
02/12:00am 22.1 - - - - ESE 33 39 18 21 1020.1 1020.0 -
 
Date/Time
EST
Temp
°C
App
Temp
°C
Dew
Point
°C
Rel
Hum
%
Delta-T
°C
Wind Press
QNH
hPa
Press
MSL
hPa
Rain since
9am
mm
Dir  Spd
km/h
Gust
km/h
Spd
kts
Gust
kts
01/11:30pm 22.2 - - - - ESE 33 39 18 21 1020.1 1020.0 -
01/11:00pm 22.1 - - - - ESE 35 39 19 21 1020.3 1020.2 -
01/10:30pm 22.1 - - - - ESE 35 43 19 23 1020.3 1020.2 -
01/10:00pm 21.9 - - - - SE 33 46 18 25 1020.5 1020.4 -
01/09:30pm 22.1 - - - - ESE 39 43 21 23 1020.4 1020.3 -
01/09:00pm 22.1 - - - - ESE 33 41 18 22 1020.5 1020.4 -
01/08:30pm 22.2 - - - - ESE 33 37 18 20 1020.3 1020.2 -
01/08:00pm 22.0 - - - - SE 37 44 20 24 1020.1 1020.0 -
01/07:30pm 22.1 - - - - SE 35 43 19 23 1019.8 1019.8 -
01/07:00pm 22.1 - - - - SE 33 39 18 21 1019.5 1019.5 -
01/06:30pm 22.0 - - - - SE 37 43 20 23 1019.1 1019.1 -
01/06:00pm 22.0 - - - - ESE 33 39 18 21 1018.7 1018.7 -
01/05:30pm 21.9 - - - - ESE 35 43 19 23 1018.4 1018.4 -
01/05:00pm 22.0 - - - - ESE 35 43 19 23 1018.2 1018.2 -
01/04:30pm 22.2 - - - - ESE 37 43 20 23 1018.1 1018.1 -
01/04:00pm 22.1 - - - - ESE 32 39 17 21 1017.8 1017.8 -

Other formats

Comma delimited format used in spreadsheet applications
http://www.bom.gov.au/fwo/IDQ60801/IDQ60801.94393.axf

JavaScript Object Notation format (JSON) in row-major order
http://www.bom.gov.au/fwo/IDQ60801/IDQ60801.94393.json

Data quality

Most of these data are generated automatically and are frequently updated. Quality checks on data are not normally performed. It is possible for incorrect values to appear. Refer to information at About Latest Weather Observations and please check the disclaimer before using these data.